Waterloo, Ohio
Current Conditions -  °F | °C
As of 1:15 AM on Sunday 26 Oct 2014 (Local Time) from KDWU Reporting Station
Broken Clouds Broken Clouds  
Wind Chill: 52°   Ceiling: 300
Heat Index: 52°   Visibility: 0.5mi
Dew Point: 48°   Wind: 0mph
Humidity: 88%   Direction: NA
Pressure: 29.87"   Gusts: NA
Location:  38.7°N, 82.47°W
Report Text: KDWU 260515Z AUTO 00000KT 1/2SM BKN003 11/09 A2987 RMK AO1
Loading
Personal Weather Stations






























Interactive Weather Map
Tropical Storm Tracking
New forecast layout! Learn more

10-Day Weather Forecast

Advertisements
Track Severe Weather on mobile